Aérodrome :
LOGIN :

S'inscrire | Disclaimer

   EN    FR    IT 

 










Légende :    VFR   VFR Marginal   IFR   IFR Intensif   IFR Très Intensif
Visi : 
Plafond : 
>= 8 km
>= 3000ft
5 à 8 km
1000 à 3000 ft
1500m à 5 km
500 à 1000 ft
800 à 1500m
200 à 500 ft
< 800m
< 200 ft
Symboles :   Orages  Brouillard  Fortes neiges  Fortes précipitations  Vent > 20 kt
SIGMETs :   Divers  Orages  Givrage  Turbulence  Onde Orograph.  Cendres Volcan.






- Altitude de l'aérodrome : 1910 ft
- Code IATA : RDZ


LFCR - Rodez

DERNIER METAR :
  • 032000Z AUTO 07004KT 040V130 9999 ///CB 23/16 Q1020 TEMPO VRB15G25KT TSRA

METARs EXPIRÉS :
  • 031930Z AUTO 28007KT 9999 VCTS ///CB 23/16 Q1021 TEMPO VRB15G25KT
  • 031900Z AUTO 27008KT CAVOK 24/17 Q1021 TEMPO VRB15G25KT TSRA BECMG SCT050 FEW070CB BKN130
  • 031830Z AUTO 26009KT CAVOK 24/17 Q1021 TEMPO VRB15G25KT TSRA BECMG SCT050 FEW070CB BKN130
  • 030500Z AUTO 15003KT CAVOK 14/12 Q1021 NOSIG
  • 031800Z AUTO 30007KT CAVOK 24/18 Q1020 BECMG SCT050 FEW070CB BKN130
  • 031730Z AUTO 30006KT CAVOK 25/17 Q1019 BECMG SCT050 FEW070CB BKN130

TAF AMD TAF LFCR
Valide du 03 à 19h jusqu'au 04 à 18h UTC


031937Z 0319/0418 30005KT CAVOK
BECMG 0319/0321 SCT050 FEW070CB BKN130
PROB40
TEMPO 0319/0324 VRB15G25KT TSRA
BECMG 0400/0402 CAVOK
TEMPO 0405/0409 SCT040 FEW070CB BKN130



MET'MAP, la Météo Aéronautique d'un coup d'oeil ! - Copyright ORBIFLY Décembre 2007 - Disclaimer

ORBIFLY MET'MAP TEAM :

Programmation & Développement : Alexandra Zaïnal
Sur une idée originale de : Baudouin d'Aumeries
Soutien technique & logistique : Manuel Goepfert
Assistance : Marc-Olivier Méhu




SOURCES & CREDITS :

   NOAA